Time;durP1;ratioP1;P1;durP2;ratioP2;P2;SDS_P1;SDS_P2;PMS_P1;PMS_P2;Temp;Humidity;BMP_temperature;BMP_pressure;BME280_temperature;BME280_humidity;BME280_pressure;Samples;Min_cycle;Max_cycle;Signal;HPM_P1;HPM_P2
2021/11/21 00:03:11;;;;;;;48.00;45.00;;;;;;;10.65;100.00;101919.70;2006206;71;30826;-74
2021/11/21 00:08:55;;;;;;;49.47;46.27;;;;;;;10.66;100.00;101907.45;2000484;71;32946;-75
2021/11/21 00:14:39;;;;;;;49.03;45.80;;;;;;;10.53;100.00;101910.63;2006319;71;32886;-74
2021/11/21 00:20:24;;;;;;;50.77;47.43;;;;;;;10.52;100.00;101905.65;1995074;71;33327;-74
2021/11/21 00:26:08;;;;;;;51.57;48.07;;;;;;;10.48;100.00;101896.16;2009402;71;32889;-75
2021/11/21 00:31:52;;;;;;;51.57;48.27;;;;;;;10.47;100.00;101899.48;1997259;71;33427;-73
2021/11/21 00:37:37;;;;;;;51.13;47.97;;;;;;;10.49;100.00;101893.09;2006287;71;33249;-73
2021/11/21 00:43:23;;;;;;;51.30;48.10;;;;;;;10.47;100.00;101895.31;2017127;71;32887;-73
2021/11/21 00:49:13;;;;;;;49.60;46.40;;;;;;;10.47;100.00;101883.36;2011071;71;32992;-74
2021/11/21 00:54:54;;;;;;;51.93;48.70;;;;;;;10.49;100.00;101888.09;2000042;71;32826;-73
2021/11/21 01:00:42;;;;;;;50.73;47.43;;;;;;;10.49;100.00;101892.25;2016949;71;33481;-73
2021/11/21 01:06:28;;;;;;;50.77;47.57;;;;;;;10.54;100.00;101895.64;2011179;71;32944;-73
2021/11/21 01:12:13;;;;;;;47.90;44.77;;;;;;;10.60;100.00;101902.41;2002213;71;32838;-73
2021/11/21 01:17:58;;;;;;;48.67;45.37;;;;;;;10.62;100.00;101897.96;1995209;71;32950;-75
2021/11/21 01:23:43;;;;;;;47.77;44.77;;;;;;;10.60;100.00;101891.30;2004151;71;32952;-74
2021/11/21 01:29:27;;;;;;;48.43;45.43;;;;;;;10.53;100.00;101884.23;2016849;71;32924;-75
2021/11/21 01:35:12;;;;;;;49.97;46.93;;;;;;;10.58;100.00;101892.09;1995318;71;33390;-74
2021/11/21 01:40:58;;;;;;;47.50;44.57;;;;;;;10.58;100.00;101891.25;2004050;71;33450;-75
2021/11/21 01:46:43;;;;;;;47.30;44.20;;;;;;;10.55;100.00;101898.72;2002698;71;33239;-74
2021/11/21 01:52:30;;;;;;;45.53;42.63;;;;;;;10.60;100.00;101891.30;2000404;71;33397;-73
2021/11/21 01:58:14;;;;;;;46.97;44.13;;;;;;;10.57;100.00;101890.98;2014842;71;32945;-73
2021/11/21 02:04:00;;;;;;;45.63;42.53;;;;;;;10.52;100.00;101882.03;2018518;71;32963;-74
2021/11/21 02:09:44;;;;;;;43.93;41.00;;;;;;;10.55;100.00;101868.16;2010014;71;33306;-72
2021/11/21 02:15:28;;;;;;;40.97;38.33;;;;;;;10.57;100.00;101868.76;2013355;71;33413;-74
2021/11/21 02:21:17;;;;;;;42.70;39.90;;;;;;;10.61;100.00;101867.13;2011823;71;33400;-75
2021/11/21 02:27:01;;;;;;;41.67;39.07;;;;;;;10.62;100.00;101859.91;2009924;71;33360;-75
2021/11/21 02:32:51;;;;;;;40.43;38.03;;;;;;;10.65;100.00;101848.30;2006303;71;33328;-75
2021/11/21 02:38:38;;;;;;;40.47;37.80;;;;;;;10.64;100.00;101854.94;2000769;71;33252;-75
2021/11/21 02:44:26;;;;;;;40.03;37.40;;;;;;;10.61;100.00;101843.52;1991495;71;32746;-74
2021/11/21 02:50:13;;;;;;;39.00;36.23;;;;;;;10.59;100.00;101839.59;2002222;71;32915;-74
2021/11/21 02:55:59;;;;;;;38.93;36.17;;;;;;;10.55;100.00;101838.45;2017006;71;33000;-75
2021/11/21 03:01:43;;;;;;;39.40;37.07;;;;;;;10.46;100.00;101825.57;1998883;71;32813;-73
2021/11/21 03:07:27;;;;;;;39.93;37.50;;;;;;;10.23;100.00;101822.22;2013000;71;32816;-74
2021/11/21 03:13:11;;;;;;;41.20;38.17;;;;;;;10.08;100.00;101826.17;1994876;71;33408;-73
2021/11/21 03:18:56;;;;;;;40.97;38.40;;;;;;;9.94;100.00;101821.00;1991448;71;33330;-73
2021/11/21 03:24:41;;;;;;;44.93;41.63;;;;;;;9.66;100.00;101833.66;2014645;71;32888;-74
2021/11/21 03:30:26;;;;;;;44.03;41.17;;;;;;;9.68;100.00;101843.95;2009399;71;33034;-72
2021/11/21 03:36:10;;;;;;;44.13;41.17;;;;;;;9.59;100.00;101836.60;2016628;71;33459;-73
2021/11/21 03:41:54;;;;;;;44.03;41.03;;;;;;;9.52;100.00;101837.34;2012944;71;32922;-73
2021/11/21 03:47:39;;;;;;;42.70;40.20;;;;;;;9.51;100.00;101833.42;2016543;71;32907;-73
2021/11/21 03:53:24;;;;;;;42.83;40.10;;;;;;;9.37;100.00;101845.41;2011670;71;33258;-73
2021/11/21 03:59:08;;;;;;;43.07;40.30;;;;;;;9.34;100.00;101829.83;2007988;70;33271;-74
2021/11/21 04:04:52;;;;;;;44.23;41.70;;;;;;;9.25;100.00;101852.13;1994743;71;33374;-75
2021/11/21 04:10:36;;;;;;;45.90;42.80;;;;;;;9.19;100.00;101845.69;2004223;71;32842;-74
2021/11/21 04:16:20;;;;;;;46.40;43.20;;;;;;;9.14;100.00;101845.05;2003917;71;32848;-74
2021/11/21 04:22:05;;;;;;;44.40;41.30;;;;;;;9.10;100.00;101841.10;2009438;71;33365;-75
2021/11/21 04:27:50;;;;;;;46.73;43.47;;;;;;;9.01;100.00;101848.69;2016472;71;32937;-73
2021/11/21 04:33:34;;;;;;;47.07;44.03;;;;;;;8.93;100.00;101849.95;2002129;71;32937;-73
2021/11/21 04:39:18;;;;;;;46.57;43.67;;;;;;;8.89;100.00;101844.61;2002573;71;33341;-75
2021/11/21 04:45:04;;;;;;;47.23;44.17;;;;;;;8.87;100.00;101839.85;2016663;71;33430;-73
2021/11/21 04:50:49;;;;;;;49.43;45.83;;;;;;;8.76;100.00;101842.70;2014779;71;32925;-74
2021/11/21 04:56:32;;;;;;;48.23;45.10;;;;;;;8.73;100.00;101848.17;2000852;71;32792;-75
2021/11/21 05:02:16;;;;;;;47.57;44.20;;;;;;;8.72;100.00;101851.20;1929744;71;39495;-72
2021/11/21 05:07:59;;;;;;;46.70;43.50;;;;;;;8.60;100.00;101854.86;2009279;71;33413;-75
2021/11/21 05:13:43;;;;;;;48.87;45.50;;;;;;;8.57;100.00;101861.44;2011786;71;32780;-75
2021/11/21 05:19:27;;;;;;;49.50;46.20;;;;;;;8.51;100.00;101854.14;2015284;71;32925;-75
2021/11/21 05:25:11;;;;;;;47.97;44.50;;;;;;;8.48;100.00;101847.69;2005763;71;32839;-75
2021/11/21 05:30:56;;;;;;;47.77;44.57;;;;;;;8.13;100.00;101851.92;2006210;71;33276;-73
2021/11/21 05:36:39;;;;;;;49.23;45.80;;;;;;;8.33;100.00;101852.94;1991433;71;33348;-73
2021/11/21 05:42:24;;;;;;;45.90;42.70;;;;;;;8.32;100.00;101853.47;2012952;71;33423;-75
2021/11/21 05:48:09;;;;;;;46.50;43.30;;;;;;;8.29;100.00;101848.95;2016721;71;32964;-75
2021/11/21 05:53:53;;;;;;;48.87;45.37;;;;;;;8.17;100.00;101853.14;2013224;71;33327;-73
2021/11/21 05:59:38;;;;;;;46.60;43.40;;;;;;;8.06;100.00;101856.76;2002441;71;32847;-74
2021/11/21 06:05:22;;;;;;;45.17;42.07;;;;;;;8.07;100.00;101860.68;2014854;71;33296;-73
2021/11/21 06:11:07;;;;;;;47.40;44.00;;;;;;;8.05;100.00;101850.38;1991445;71;32829;-75
2021/11/21 06:16:51;;;;;;;49.50;46.27;;;;;;;7.92;100.00;101866.41;2006286;71;32804;-73
2021/11/21 06:22:37;;;;;;;48.60;45.40;;;;;;;7.50;100.00;101869.86;2015042;71;33380;-75
2021/11/21 06:28:20;;;;;;;48.03;44.80;;;;;;;7.17;100.00;101875.43;2011492;71;32936;-75
2021/11/21 06:34:04;;;;;;;47.77;44.47;;;;;;;7.02;100.00;101851.55;1995138;71;32832;-74
2021/11/21 06:39:48;;;;;;;45.90;42.90;;;;;;;7.57;100.00;101863.69;1998534;71;33440;-73
2021/11/21 06:45:33;;;;;;;49.67;46.10;;;;;;;7.02;100.00;101874.17;2004425;71;33282;-73
2021/11/21 06:51:17;;;;;;;50.90;47.50;;;;;;;7.01;100.00;101883.03;2011389;71;32838;-74
2021/11/21 06:57:01;;;;;;;45.63;42.70;;;;;;;6.83;100.00;101876.19;2014981;71;32838;-75
2021/11/21 07:02:46;;;;;;;45.80;42.77;;;;;;;7.21;100.00;101886.84;2003838;71;33534;-74
2021/11/21 07:08:30;;;;;;;45.63;42.43;;;;;;;6.82;100.00;101891.91;1995180;71;32871;-72
2021/11/21 07:14:15;;;;;;;46.70;43.60;;;;;;;6.73;100.00;101894.70;2014984;71;33401;-74
2021/11/21 07:20:00;;;;;;;46.37;43.20;;;;;;;7.00;100.00;101903.44;2006196;71;32871;-73
2021/11/21 07:25:44;;;;;;;47.60;44.60;;;;;;;6.57;100.00;101902.80;2004253;71;33440;-75
2021/11/21 07:31:28;;;;;;;47.17;44.10;;;;;;;6.82;100.00;101904.87;2000803;71;33378;-75
2021/11/21 07:37:11;;;;;;;43.90;40.90;;;;;;;6.90;100.00;101903.69;2013232;71;33393;-75
2021/11/21 07:42:56;;;;;;;44.83;41.93;;;;;;;6.87;100.00;101900.87;1999018;71;32861;-74
2021/11/21 07:48:42;;;;;;;45.10;42.00;;;;;;;6.91;100.00;101913.67;2016701;71;32954;-76
2021/11/21 07:54:26;;;;;;;44.97;41.80;;;;;;;6.67;100.00;101916.89;2004212;70;33333;-74
2021/11/21 08:00:13;;;;;;;42.47;39.87;;;;;;;6.87;100.00;101922.97;1997403;71;33282;-77
2021/11/21 08:05:57;;;;;;;42.27;39.40;;;;;;;7.00;100.00;101916.41;2004025;71;33331;-75
2021/11/21 08:11:41;;;;;;;43.07;39.87;;;;;;;6.90;100.00;101930.78;2004504;71;32775;-75
2021/11/21 08:17:26;;;;;;;41.80;39.10;;;;;;;6.96;100.00;101932.61;2000693;71;33363;-75
2021/11/21 08:23:10;;;;;;;41.77;39.20;;;;;;;6.79;100.00;101945.39;1999007;71;32933;-76
2021/11/21 08:28:54;;;;;;;41.40;38.97;;;;;;;6.92;100.00;101945.20;1994870;71;32934;-74
2021/11/21 08:34:38;;;;;;;41.33;38.50;;;;;;;6.96;100.00;101951.95;2016685;71;33392;-75
2021/11/21 08:40:23;;;;;;;40.93;38.27;;;;;;;7.10;100.00;101943.75;1999887;71;32835;-73
2021/11/21 08:46:07;;;;;;;46.07;43.40;;;;;;;7.13;100.00;101965.41;1998435;70;32968;-74
2021/11/21 08:51:51;;;;;;;44.87;42.17;;;;;;;7.08;100.00;101961.12;2012818;71;32838;-76
2021/11/21 08:57:36;;;;;;;47.53;45.03;;;;;;;7.22;100.00;101959.84;2005897;71;32941;-77
2021/11/21 09:03:23;;;;;;;51.20;47.93;;;;;;;7.19;100.00;101963.06;1975164;71;28427;-75
2021/11/21 09:09:08;;;;;;;46.63;43.70;;;;;;;7.41;100.00;101981.33;2002255;71;32779;-74
2021/11/21 09:14:53;;;;;;;41.83;39.60;;;;;;;7.56;100.00;101979.51;2009906;71;32851;-75
2021/11/21 09:20:38;;;;;;;44.20;41.80;;;;;;;7.63;100.00;101978.84;2014520;70;32914;-77
2021/11/21 09:26:21;;;;;;;41.20;39.10;;;;;;;7.74;100.00;101989.10;2004238;71;32754;-76
2021/11/21 09:32:08;;;;;;;41.23;38.87;;;;;;;7.87;100.00;102001.33;2016822;71;32851;-76
2021/11/21 09:37:52;;;;;;;43.10;40.73;;;;;;;7.88;100.00;102000.75;2016899;71;33364;-73
2021/11/21 09:43:37;;;;;;;39.70;37.77;;;;;;;8.02;100.00;101996.68;2009427;71;32926;-74
2021/11/21 09:49:21;;;;;;;39.60;37.67;;;;;;;8.07;100.00;101999.58;2000756;71;32863;-76
2021/11/21 09:55:07;;;;;;;39.27;37.00;;;;;;;8.23;100.00;101998.84;2015021;71;33295;-74
2021/11/21 10:00:53;;;;;;;41.77;39.63;;;;;;;8.31;100.00;102010.96;2002703;71;33205;-76
2021/11/21 10:06:44;;;;;;;40.63;38.53;;;;;;;8.42;100.00;102009.28;1998296;71;32925;-74
2021/11/21 10:12:28;;;;;;;34.67;32.97;;;;;;;8.74;100.00;102009.14;2015061;71;33367;-74
2021/11/21 10:18:16;;;;;;;36.23;34.13;;;;;;;8.85;100.00;102004.67;2016588;71;32900;-76
2021/11/21 10:24:13;;;;;;;35.90;34.10;;;;;;;8.67;100.00;102014.83;1963785;71;32951;-74
2021/11/21 10:30:01;;;;;;;34.10;32.00;;;;;;;8.80;100.00;102022.03;2003764;71;33377;-76
2021/11/21 10:35:49;;;;;;;40.27;38.07;;;;;;;8.78;100.00;102020.57;1995127;71;32742;-76
2021/11/21 10:41:37;;;;;;;38.07;35.80;;;;;;;8.77;100.00;102021.68;2000730;71;33314;-76
2021/11/21 10:47:23;;;;;;;36.17;34.07;;;;;;;8.80;100.00;102025.34;2002321;71;32903;-74
2021/11/21 10:53:12;;;;;;;36.30;34.33;;;;;;;8.68;100.00;102019.27;2016686;71;32914;-76
2021/11/21 10:58:56;;;;;;;36.90;35.00;;;;;;;8.93;100.00;102031.45;2003910;71;32916;-76
2021/11/21 11:08:13;;;;;;;35.67;33.83;;;;;;;9.00;100.00;102016.90;2015272;71;32832;-75
2021/11/21 11:13:57;;;;;;;34.67;32.77;;;;;;;9.04;100.00;102018.08;2007671;71;32914;-75
2021/11/21 11:19:41;;;;;;;32.20;30.43;;;;;;;9.23;100.00;102004.88;2009366;71;32887;-73
2021/11/21 11:25:28;;;;;;;31.50;29.63;;;;;;;9.54;100.00;102003.52;2006329;71;33404;-71
2021/11/21 11:31:25;;;;;;;30.93;29.23;;;;;;;9.71;100.00;101992.44;1997170;71;32874;-74
2021/11/21 11:37:14;;;;;;;32.30;30.60;;;;;;;9.59;100.00;101992.48;2000543;71;33417;-76
2021/11/21 11:43:00;;;;;;;32.10;30.30;;;;;;;9.63;100.00;101997.83;1997093;71;33409;-74
2021/11/21 11:48:59;;;;;;;30.20;28.43;;;;;;;9.80;100.00;101988.96;2009887;71;32745;-76
2021/11/21 11:55:11;;;;;;;34.00;32.30;;;;;;;9.59;100.00;101990.56;2007644;71;33287;-75
2021/11/21 12:00:55;;;;;;;31.13;29.43;;;;;;;9.48;100.00;101987.33;1997392;71;32831;-76
2021/11/21 12:06:56;;;;;;;29.97;28.40;;;;;;;9.70;100.00;101990.20;2009640;71;32873;-75
2021/11/21 12:16:23;;;;;;;33.77;31.77;;;;;;;9.92;100.00;102007.78;2006480;71;33303;-71
2021/11/21 12:22:37;;;;;;;33.03;31.20;;;;;;;9.98;100.00;102006.75;1989673;71;33312;-76
2021/11/21 12:28:23;;;;;;;35.03;32.77;;;;;;;9.74;100.00;102009.41;2015340;70;33521;-77
2021/11/21 12:34:49;;;;;;;31.57;29.70;;;;;;;9.81;100.00;102002.30;2015089;71;32812;-75
2021/11/21 12:40:55;;;;;;;30.80;29.00;;;;;;;9.81;100.00;102007.30;1991573;71;33300;-77
2021/11/21 12:46:40;;;;;;;29.47;27.60;;;;;;;9.92;100.00;102001.39;2018350;71;32886;-77
2021/11/21 12:52:24;;;;;;;31.20;29.13;;;;;;;10.16;100.00;102002.06;2012027;71;33220;-72
2021/11/21 12:58:15;;;;;;;27.10;25.53;;;;;;;10.01;100.00;102002.07;2009737;71;33388;-75
2021/11/21 13:04:01;;;;;;;26.27;24.57;;;;;;;10.24;100.00;101988.58;1994947;71;32925;-71
2021/11/21 13:09:46;;;;;;;29.27;27.27;;;;;;;9.97;100.00;101987.02;2015194;71;32820;-77
2021/11/21 13:15:39;;;;;;;26.13;24.53;;;;;;;10.25;100.00;101984.72;2015400;70;33410;-71
2021/11/21 13:21:21;;;;;;;25.00;23.50;;;;;;;10.14;100.00;101986.19;2004023;71;32413;-74
2021/11/21 13:27:08;;;;;;;23.53;22.03;;;;;;;10.32;100.00;101988.69;2000844;71;32868;-74
2021/11/21 13:32:52;;;;;;;26.93;25.40;;;;;;;10.17;100.00;101988.48;2015064;71;32914;-75
2021/11/21 13:38:36;;;;;;;25.97;24.37;;;;;;;9.92;100.00;101988.36;2015259;71;32841;-75
2021/11/21 13:44:19;;;;;;;24.67;23.37;;;;;;;9.83;100.00;101984.31;2014847;71;32998;-75
2021/11/21 13:50:06;;;;;;;27.40;25.90;;;;;;;10.01;100.00;101997.91;2017125;71;32836;-72
2021/11/21 13:56:12;;;;;;;26.13;24.60;;;;;;;10.08;100.00;101989.97;2004604;71;32879;-75
2021/11/21 14:01:58;;;;;;;25.70;24.10;;;;;;;9.98;100.00;101998.97;2018726;71;32951;-76
2021/11/21 14:07:59;;;;;;;24.87;23.37;;;;;;;9.88;100.00;102001.03;1995041;71;33352;-77
2021/11/21 14:13:49;;;;;;;24.63;23.27;;;;;;;9.68;100.00;101999.84;2000671;71;32908;-76
2021/11/21 14:19:37;;;;;;;24.00;22.60;;;;;;;9.70;100.00;102008.77;1991981;71;32770;-71
2021/11/21 14:25:31;;;;;;;22.83;21.37;;;;;;;9.96;100.00;102000.63;1997584;71;32796;-76
2021/11/21 14:31:23;;;;;;;24.03;22.47;;;;;;;9.95;100.00;101998.09;2012931;71;32847;-71
2021/11/21 14:37:12;;;;;;;23.87;22.47;;;;;;;9.81;100.00;102006.45;2018566;71;32931;-72
2021/11/21 14:42:58;;;;;;;25.17;23.50;;;;;;;9.85;100.00;102009.86;2016609;71;32933;-72
2021/11/21 14:48:44;;;;;;;21.93;20.83;;;;;;;9.70;100.00;102019.33;2013357;71;32978;-72
2021/11/21 14:54:34;;;;;;;25.80;24.10;;;;;;;9.68;100.00;102022.05;2009203;71;33287;-76
2021/11/21 15:00:20;;;;;;;22.83;21.40;;;;;;;9.62;100.00;102036.39;2009696;71;32865;-71
2021/11/21 15:06:04;;;;;;;25.67;24.17;;;;;;;9.51;100.00;102033.97;2009412;71;33010;-73
2021/11/21 15:11:49;;;;;;;24.73;23.30;;;;;;;9.56;100.00;102041.00;2003886;71;32917;-77
2021/11/21 15:17:33;;;;;;;24.43;22.97;;;;;;;9.53;100.00;102048.98;2011735;70;32928;-75
2021/11/21 15:23:18;;;;;;;24.27;22.60;;;;;;;9.40;100.00;102061.77;1989056;71;32789;-72
2021/11/21 15:29:00;;;;;;;24.70;23.33;;;;;;;9.35;100.00;102056.12;2014888;71;32922;-79
2021/11/21 15:34:44;;;;;;;25.23;23.77;;;;;;;9.37;100.00;102065.05;2011910;71;32800;-78
2021/11/21 15:40:29;;;;;;;25.30;23.70;;;;;;;9.46;100.00;102069.07;2009671;71;32851;-71
2021/11/21 15:46:17;;;;;;;22.03;20.67;;;;;;;9.24;100.00;102086.12;2012027;71;32944;-77
2021/11/21 15:52:01;;;;;;;24.47;22.93;;;;;;;9.11;100.00;102097.77;2011274;71;32926;-75
2021/11/21 15:57:45;;;;;;;22.53;21.13;;;;;;;9.19;100.00;102097.95;2018358;71;32968;-75
2021/11/21 16:03:32;;;;;;;22.83;21.37;;;;;;;9.11;100.00;102098.34;2013179;71;32826;-71
2021/11/21 16:09:23;;;;;;;24.33;22.87;;;;;;;9.00;100.00;102109.74;1998575;71;33392;-80
2021/11/21 16:15:02;;;;;;;24.20;22.83;;;;;;;9.09;100.00;102115.75;2011893;71;33395;-71
2021/11/21 16:20:46;;;;;;;24.60;23.20;;;;;;;9.05;100.00;102126.48;2011945;71;32926;-77
2021/11/21 16:26:30;;;;;;;24.50;23.03;;;;;;;9.11;100.00;102127.45;1997067;70;32851;-71
2021/11/21 16:32:14;;;;;;;24.77;23.33;;;;;;;9.04;100.00;102126.17;1997435;71;32786;-77
2021/11/21 16:37:58;;;;;;;22.53;21.23;;;;;;;8.98;100.00;102123.55;2008467;71;33382;-71
2021/11/21 16:43:43;;;;;;;23.67;22.27;;;;;;;8.88;100.00;102133.02;2012123;71;33347;-77
2021/11/21 16:49:29;;;;;;;23.90;22.40;;;;;;;8.95;100.00;102124.86;2018883;71;33403;-77
2021/11/21 16:55:16;;;;;;;25.43;23.93;;;;;;;8.92;100.00;102127.28;2016953;71;32828;-77
2021/11/21 17:01:00;;;;;;;26.87;25.37;;;;;;;8.65;100.00;102138.02;2002611;71;32940;-78
2021/11/21 17:06:45;;;;;;;24.37;23.07;;;;;;;8.79;100.00;102149.70;2015393;71;33300;-76
2021/11/21 17:12:32;;;;;;;25.47;23.93;;;;;;;8.66;100.00;102156.33;2013269;71;32859;-75
2021/11/21 17:18:16;;;;;;;25.63;24.33;;;;;;;8.63;100.00;102160.98;2002628;71;32764;-71
2021/11/21 17:24:01;;;;;;;26.93;25.53;;;;;;;8.50;100.00;102162.05;1951757;71;33448;-79
2021/11/21 17:29:44;;;;;;;26.10;24.80;;;;;;;8.51;100.00;102169.83;1995499;71;33362;-72
2021/11/21 17:35:28;;;;;;;27.63;26.03;;;;;;;8.41;100.00;102198.09;2000340;71;32829;-72
2021/11/21 17:41:12;;;;;;;27.50;26.03;;;;;;;8.39;100.00;102195.24;2016771;71;32829;-79
2021/11/21 17:46:56;;;;;;;25.90;24.50;;;;;;;8.25;100.00;102207.06;2002793;71;33331;-79
2021/11/21 17:52:41;;;;;;;30.37;28.77;;;;;;;8.19;100.00;102217.69;2013299;71;32865;-80
2021/11/21 17:58:28;;;;;;;26.20;24.80;;;;;;;8.03;100.00;102230.81;2013949;71;32755;-75
2021/11/21 18:04:13;;;;;;;26.30;24.80;;;;;;;8.00;100.00;102228.52;1943747;70;33691;-68
2021/11/21 18:09:59;;;;;;;28.37;26.73;;;;;;;7.93;100.00;102238.81;2018397;71;33146;-69
2021/11/21 18:15:44;;;;;;;28.30;26.70;;;;;;;7.82;100.00;102251.53;2014944;70;32922;-73
2021/11/21 18:21:28;;;;;;;28.77;27.07;;;;;;;7.69;100.00;102261.38;2013043;71;32802;-74
2021/11/21 18:27:17;;;;;;;28.43;26.83;;;;;;;7.64;100.00;102262.61;2013310;71;33349;-68
2021/11/21 18:32:58;;;;;;;29.40;27.80;;;;;;;7.61;100.00;102279.14;2005658;71;32910;-73
2021/11/21 18:38:43;;;;;;;31.40;29.60;;;;;;;7.57;100.00;102277.87;2002582;71;32737;-71
2021/11/21 18:44:26;;;;;;;31.97;30.10;;;;;;;7.41;100.00;102280.41;2002719;71;32752;-72
2021/11/21 18:50:12;;;;;;;32.20;30.30;;;;;;;7.44;100.00;102292.41;2004376;71;32802;-70
2021/11/21 18:56:01;;;;;;;32.93;30.97;;;;;;;7.31;100.00;102297.02;2011312;71;32789;-70
2021/11/21 19:01:47;;;;;;;36.63;34.63;;;;;;;7.05;100.00;102308.32;2002653;71;32897;-74
2021/11/21 19:07:32;;;;;;;35.40;33.30;;;;;;;7.00;100.00;102305.92;1997025;71;32742;-75
2021/11/21 19:13:21;;;;;;;34.43;32.47;;;;;;;7.07;100.00;102315.83;2048639;69;32795;-70
2021/11/21 19:19:07;;;;;;;35.40;33.23;;;;;;;7.10;100.00;102316.75;2004222;71;33304;-69
2021/11/21 19:24:52;;;;;;;34.90;32.90;;;;;;;7.06;100.00;102321.61;2011041;71;32952;-70
2021/11/21 19:30:37;;;;;;;37.00;34.70;;;;;;;6.98;100.00;102336.52;2009618;71;33306;-71
2021/11/21 19:36:27;;;;;;;35.27;33.20;;;;;;;6.84;100.00;102338.57;2009593;71;32874;-72
2021/11/21 19:42:12;;;;;;;36.50;34.33;;;;;;;6.82;100.00;102331.03;2006766;70;32926;-73
2021/11/21 19:47:57;;;;;;;37.73;35.53;;;;;;;6.67;100.00;102337.42;2016563;71;32800;-73
2021/11/21 19:53:43;;;;;;;39.80;37.30;;;;;;;6.63;100.00;102358.23;2014786;71;32799;-73
2021/11/21 19:59:28;;;;;;;39.37;37.13;;;;;;;6.64;100.00;102355.80;2016564;71;32817;-72
2021/11/21 20:05:14;;;;;;;38.93;36.33;;;;;;;6.58;100.00;102371.88;2003861;71;32817;-75
2021/11/21 20:10:59;;;;;;;38.33;36.07;;;;;;;6.58;100.00;102373.80;1995014;71;32815;-72
2021/11/21 20:16:44;;;;;;;38.60;36.50;;;;;;;6.55;100.00;102381.12;2003895;71;32880;-72
2021/11/21 20:22:28;;;;;;;39.67;37.17;;;;;;;6.61;100.00;102386.62;1990056;71;33220;-73
2021/11/21 20:28:13;;;;;;;41.73;39.53;;;;;;;6.59;100.00;102383.78;2004529;71;32789;-73
2021/11/21 20:40:05;;;;;;;41.80;39.20;;;;;;;6.20;100.00;102391.20;2013359;71;33406;-71
2021/11/21 20:46:15;;;;;;;41.83;39.33;;;;;;;6.36;100.00;102398.12;2011187;70;33337;-72
2021/11/21 20:52:00;;;;;;;41.73;39.27;;;;;;;6.25;100.00;102408.45;2015028;71;33412;-73
2021/11/21 20:57:44;;;;;;;41.73;39.20;;;;;;;6.17;100.00;102417.82;2016620;71;32830;-71
2021/11/21 21:03:30;;;;;;;40.80;38.40;;;;;;;6.23;100.00;102432.66;2011126;71;32915;-71
2021/11/21 21:09:17;;;;;;;41.00;38.50;;;;;;;6.39;100.00;102444.06;2000611;71;32910;-74
2021/11/21 21:15:05;;;;;;;39.07;36.67;;;;;;;6.28;100.00;102443.91;2007616;71;32890;-71
2021/11/21 21:20:49;;;;;;;40.83;38.53;;;;;;;6.23;100.00;102454.22;2014639;71;32992;-71
2021/11/21 21:26:33;;;;;;;42.23;39.67;;;;;;;6.20;100.00;102460.17;2016607;71;33336;-70
2021/11/21 21:32:18;;;;;;;41.17;38.57;;;;;;;6.15;100.00;102457.74;2006333;71;33285;-73
2021/11/21 21:38:03;;;;;;;43.03;40.43;;;;;;;6.08;100.00;102464.64;2004045;71;32852;-73
2021/11/21 21:43:48;;;;;;;42.77;40.27;;;;;;;6.02;100.00;102471.04;2006186;71;32853;-74
2021/11/21 21:49:32;;;;;;;41.10;38.50;;;;;;;6.06;100.00;102469.55;2000696;71;32858;-74
2021/11/21 21:55:16;;;;;;;39.87;37.33;;;;;;;5.99;100.00;102479.72;2013122;71;32849;-71
2021/11/21 22:01:01;;;;;;;40.00;37.60;;;;;;;6.11;100.00;102464.23;2005949;71;33292;-69
2021/11/21 22:06:45;;;;;;;41.33;38.73;;;;;;;6.21;100.00;102481.16;2015071;71;32843;-71
2021/11/21 22:12:30;;;;;;;41.90;39.20;;;;;;;5.93;100.00;102491.63;1998836;71;32957;-70
2021/11/21 22:18:15;;;;;;;42.53;39.93;;;;;;;5.83;100.00;102489.80;2011204;71;32931;-71
2021/11/21 22:23:59;;;;;;;42.43;39.63;;;;;;;6.01;100.00;102494.16;1963796;71;33530;-72
2021/11/21 22:29:44;;;;;;;43.20;40.40;;;;;;;5.84;100.00;102499.77;2008359;71;32872;-73
2021/11/21 22:35:28;;;;;;;44.50;41.70;;;;;;;5.94;100.00;102507.98;2014952;71;32991;-69
2021/11/21 22:41:12;;;;;;;42.77;40.17;;;;;;;5.99;100.00;102521.66;2009962;71;32764;-70
2021/11/21 22:46:56;;;;;;;44.67;41.70;;;;;;;5.86;100.00;102541.27;2018550;71;32851;-70
2021/11/21 22:52:42;;;;;;;42.90;40.10;;;;;;;5.95;100.00;102539.98;2016811;71;32855;-72
2021/11/21 22:58:26;;;;;;;44.87;41.80;;;;;;;6.12;100.00;102541.77;2002493;71;32924;-72
2021/11/21 23:04:33;;;;;;;44.30;41.60;;;;;;;5.77;100.00;102541.16;2014852;71;32979;-73
2021/11/21 23:10:20;;;;;;;46.23;43.30;;;;;;;5.82;100.00;102547.38;1991682;71;32872;-71
2021/11/21 23:16:07;;;;;;;44.93;42.10;;;;;;;5.76;100.00;102562.89;2009496;71;32910;-71
2021/11/21 23:21:51;;;;;;;45.27;42.47;;;;;;;5.62;100.00;102576.34;2002197;71;32783;-71
2021/11/21 23:27:34;;;;;;;44.47;41.67;;;;;;;5.43;100.00;102577.17;2004430;71;32854;-70
2021/11/21 23:33:21;;;;;;;45.37;42.57;;;;;;;5.48;100.00;102595.28;1984979;71;32793;-71
2021/11/21 23:39:06;;;;;;;45.23;42.47;;;;;;;5.74;100.00;102605.50;2009396;71;32902;-71
2021/11/21 23:44:50;;;;;;;46.17;43.17;;;;;;;5.80;100.00;102608.28;1997019;71;33293;-72
2021/11/21 23:50:34;;;;;;;47.57;44.57;;;;;;;5.64;100.00;102611.98;2015059;70;32989;-71
2021/11/21 23:56:18;;;;;;;45.60;42.70;;;;;;;5.52;100.00;102617.79;2000404;71;33332;-71
